KPTW/PTW METAR and TAF weather

Enter ICAO airport designator
Station Type Date Time Source
KPTW METAR 2019/10/15 21:54 UTC NOAA

KPTW 152154Z AUTO 00000KT 10SM CLR 17/04 A3008 RMK AO2 SLP183 T01720039 $


Station Type Date Time Source
KPTW Decoded METAR 2019/10/15 21:54 UTC NOAA

POTTSTOWN LIMERICK AIRPORT, PA, United States (KPTW) 40-14N 075-33W 89M
Oct 15, 2019 - 05:54 PM EDT / 2019.10.15 2154 UTC
Wind: Calm:0
Visibility: 10 mile(s):0
Sky conditions: clear
Temperature: 63.0 F (17.2 C)
Dew Point: 39.0 F (3.9 C)
Relative Humidity: 41%
Pressure (altimeter): 30.08 in. Hg (1018 hPa)
ob: KPTW 152154Z AUTO 00000KT 10SM CLR 17/04 A3008 RMK AO2 SLP183 T01720039
cycle: 22

Station Type Date Time Source
KPTW TAF UTC NOAA

Error!

Example: see airport list